Home > Products > Valid Products > TAF

000
FTUS41 KOKX 240554
TAFGON
TAF
KGON 240554Z 2406/2506 35007KT 6SM -RA BR SCT040 BKN070
     FM240900 04008KT 4SM -SHRA BR BKN010
      TEMPO 2410/2414 BKN008
     FM241500 02006KT P6SM VCSH BKN020
     FM242100 18005KT P6SM VCSH FEW030 BKN060
     FM250100 VRB04KT P6SM SCT100=



000
FTUS41 KOKX 240242 AAB
TAFGON
TAF AMD
KGON 240242Z 2403/2424 VRB03KT 6SM -RA OVC080
     FM240400 VRB03KT 6SM -RA BKN050
     FM240800 VRB04KT 6SM BR BKN015
     FM241000 02005KT 4SM BR BKN010
     FM241600 35008KT P6SM VCSH BKN020
     FM242000 31007KT P6SM VCSH FEW020 BKN060=



000
FTUS41 KOKX 240242 AAA
TAFLGA
TAF AMD
KLGA 240242Z 2403/2424 22005KT P6SM SCT050 OVC100
     FM240400 VRB04KT 6SM -RA BKN050
     FM240800 36004KT 5SM -RA BR BKN020
     FM241100 05006KT 5SM -RA BR BKN015
     FM241600 05006KT P6SM VCSH BKN020
     FM242000 VRB05KT P6SM VCSH FEW020 BKN060=



000
FTUS41 KOKX 240242 AAA
TAFSWF
TAF AMD
KSWF 240242Z 2403/2506 VRB04KT P6SM VCSH BKN080
     FM240600 VRB03KT 5SM -RA OVC050
     FM240900 VRB05KT 5SM -RA BKN020
     FM241600 04005KT P6SM VCSH BKN040
     FM241800 03005KT P6SM VCSH SCT040 BKN060
     FM250000 VRB04KT P6SM BKN080
      AMD NOT SKED=



000
FTUS41 KOKX 240242 AAA
TAFEWR
TAF AMD
KEWR 240242Z 2403/2506 22005KT P6SM VCSH SCT045 OVC080
     FM240400 VRB03KT 6SM -RA BKN045
     FM240800 VRB04KT 5SM -RA BR BKN020
     FM241100 36004KT 5SM -RA BR BKN015
     FM241600 34006KT P6SM VCSH BKN020
     FM242000 22007KT P6SM VCSH FEW020 BKN060
     FM250000 27005KT P6SM BKN080=



000
FTUS41 KOKX 240242 AAB
TAFISP
TAF AMD
KISP 240242Z 2403/2424 VRB04KT 6SM -RA SCT050 OVC100
     FM240500 VRB03KT 5SM -RA BKN050
     FM240800 02004KT 5SM -RA BR BKN020
     FM241300 36006KT P6SM BKN010
     FM241600 34006KT P6SM VCSH BKN020
     FM242000 28006KT P6SM VCSH FEW020 BKN060=



000
FTUS41 KOKX 240242 AAA
TAFTEB
TAF AMD
KTEB 240242Z 2403/2424 20005KT P6SM VCSH OVC090
     FM240400 VRB03KT 6SM -RA BKN050
     FM240800 VRB03KT 5SM -RA BR BKN020
     FM241100 36004KT 5SM -RA BR BKN015
     FM241600 34005KT P6SM VCSH BKN020
     FM242000 25005KT P6SM VCSH FEW020 BKN060=



000
FTUS41 KOKX 240242 AAA
TAFJFK
TAF AMD
KJFK 240242Z 2403/2506 21005KT P6SM SCT050 OVC100
     FM240400 VRB05KT 6SM -RA BKN050
     FM240800 35005KT 5SM -RA BR BKN020
     FM241100 36006KT 5SM -RA BR BKN015
     FM241600 30008KT P6SM VCSH BKN020
     FM242000 22008KT P6SM VCSH FEW020 BKN060
     FM250000 25006KT P6SM BKN080=



000
FTUS41 KOKX 240042 AAA
TAFGON
TAF AMD
KGON 240042Z 2401/2424 VRB03KT 6SM -RA SCT050 OVC100
     FM240400 VRB03KT 6SM -RA BKN050
     FM240800 VRB04KT 6SM BR BKN015
     FM241000 02005KT 4SM BR BKN010
     FM241600 35008KT P6SM VCSH BKN020
     FM242000 31007KT P6SM VCSH FEW020 BKN060=



000
FTUS41 KOKX 240038 AAA
TAFISP
TAF AMD
KISP 240038Z 2401/2424 VRB04KT 6SM -RA SCT050 OVC100
     FM240500 VRB03KT 5SM -RA BKN050
     FM240800 02004KT 5SM -RA BR BKN020
     FM241300 36006KT P6SM BKN010
     FM241600 34006KT P6SM VCSH BKN020
     FM242000 28006KT P6SM VCSH FEW020 BKN060=



000
FTUS41 KOKX 232356
TAFGON
TAF
KGON 232356Z 2400/2424 VRB04KT P6SM SCT050 OVC100
     FM240400 VRB03KT 6SM -RA BKN050
     FM240800 VRB04KT P6SM BKN015
     FM241000 02006KT P6SM BKN010
     FM241600 35008KT P6SM VCSH BKN020
     FM242000 31007KT P6SM VCSH FEW020 BKN060=



000
FTUS41 KOKX 232356
TAFSWF
TAF
KSWF 232356Z 2400/2506 11004KT P6SM BKN080
     FM240600 VRB03KT 5SM -RA SCT020 OVC050
     FM240900 VRB05KT 5SM -RA BKN020
     FM241600 04005KT P6SM VCSH BKN040
     FM241800 03005KT P6SM VCSH SCT040 BKN060
     FM250000 VRB04KT P6SM BKN080
      AMD NOT SKED=



000
FTUS41 KOKX 232346
TAFBDR
TAF
KBDR 232346Z 2400/2424 21006KT P6SM BKN100
     FM240400 VRB03KT 5SM -RA BKN050
     FM240800 36004KT 5SM -RA BR BKN020
     FM241300 36006KT P6SM BKN010
     FM241600 30008KT P6SM VCSH BKN020
     FM242000 22007KT P6SM VCSH FEW020 BKN060=



000
FTUS41 KOKX 232342 CCA
TAFISP
TAF COR
KISP 232342Z 2400/2424 14006KT P6SM SCT050 BKN100
     FM240230 VRB03KT 5SM -RA BKN050
     FM240500 VRB03KT 5SM -RA BKN020
     FM240800 02004KT 5SM -RA BR BKN010
     FM241300 36006KT P6SM BKN010
     FM241600 34006KT P6SM VCSH BKN020
     FM242000 28006KT P6SM VCSH FEW020 BKN060=



000
FTUS41 KOKX 232339
TAFEWR
TAF
KEWR 232339Z 2400/2506 VRB05KT P6SM BKN050 OVC100
     FM240200 23005KT P6SM SCT050 OVC100
     FM240500 28004KT 5SM -RA BKN050
     FM240800 VRB04KT 5SM -RA BR BKN020
     FM241100 36004KT 5SM -RA BR BKN015
     FM241600 34006KT P6SM VCSH BKN020
     FM242000 22007KT P6SM VCSH FEW020 BKN060
     FM250000 27005KT P6SM BKN080=



000
FTUS41 KOKX 232339
TAFLGA
TAF
KLGA 232339Z 2400/2424 18007KT P6SM FEW040 SCT100 BKN150
     FM240200 22005KT P6SM SCT050 OVC100
     FM240500 28004KT 5SM -RA BKN050
     FM240800 36004KT 5SM -RA BR BKN020
     FM241100 05006KT 5SM -RA BR BKN015
     FM241600 05006KT P6SM VCSH BKN020
     FM242000 VRB05KT P6SM VCSH FEW020 BKN060=



000
FTUS41 KOKX 232339
TAFJFK
TAF
KJFK 232339Z 2400/2506 19007KT P6SM FEW050 SCT100 BKN150
     FM240200 22005KT P6SM SCT050 OVC100
     FM240400 28005KT 5SM -RA BKN050
     FM240800 36005KT 5SM -RA BR BKN020
     FM241100 36006KT 5SM -RA BR BKN015
     FM241600 30008KT P6SM VCSH BKN020
     FM242000 22008KT P6SM VCSH FEW020 BKN060
     FM250000 25006KT P6SM BKN080=



000
FTUS41 KOKX 232339
TAFISP
TAF
KISP 232339Z 2400/2424 14006KT P6SM SCT050 BKN100
     FM240230 VRB03KT 5SM -RA BKN050
     FM240500 VRB03KT 5SM -RA BKN020
     FM240800 02004KT 5SM -RA BR BKN015
     FM241300 36006KT P6SM BKN015
     FM241600 34006KT P6SM VCSH BKN020
     FM242000 28006KT P6SM VCSH FEW020 BKN060=



000
FTUS41 KOKX 232339
TAFTEB
TAF
KTEB 232339Z 2400/2424 20005KT P6SM FEW050 BKN130
     FM240500 VRB03KT 5SM -RA BKN050
     FM240800 VRB03KT 5SM -RA BR BKN020
     FM241100 36004KT 5SM -RA BR BKN015
     FM241600 34005KT P6SM VCSH BKN020
     FM242000 25005KT P6SM VCSH FEW020 BKN060=



000
FTUS41 KOKX 231333 AAA
TAFBDR
TAF AMD
KBDR 231333Z 2314/2412 VRB06KT P6SM FEW050 SCT150
     FM231600 17008KT P6SM SCT050 SCT150
     FM240100 VRB05KT P6SM BKN050 OVC150
     FM240600 VRB05KT 6SM -RA BKN020 OVC050=



000
FTUS41 KOKX 231333 AAA
TAFEWR
TAF AMD
KEWR 231333Z 2314/2418 04006KT P6SM FEW050 SCT150
     FM231800 15007KT P6SM SCT050 SCT150
      TEMPO 2318/2322 -SHRA
     FM240100 VRB06KT P6SM BKN050 OVC150
     FM240600 34005KT 6SM -RA BKN020 OVC050
     FM241500 33006KT P6SM BKN020=



000
FTUS41 KOKX 231333 AAA
TAFSWF
TAF AMD
KSWF 231333Z 2314/2418 06005KT P6SM SCT040 SCT150
     FM231700 07008KT P6SM BKN040
      TEMPO 2318/2322 5SM -TSRA BKN050CB
     FM240000 VRB04KT P6SM BKN040 OVC100
     FM240600 VRB04KT P6SM -RA BKN020 OVC050
     FM241400 VRB05KT P6SM BKN020
      AMD NOT SKED=



000
FTUS41 KOKX 231333 AAA
TAFJFK
TAF AMD
KJFK 231333Z 2314/2418 16005KT P6SM FEW050 SCT150
     FM231700 16011KT P6SM SCT050 SCT150
      TEMPO 2318/2322 -SHRA
     FM240200 VRB06KT P6SM BKN050 OVC150
     FM240600 36006KT 6SM -RA BKN020 OVC050
     FM241500 30008KT P6SM BKN020=



000
FTUS41 KOKX 231333 AAA
TAFISP
TAF AMD
KISP 231333Z 2314/2412 03006KT P6SM FEW050 SCT150
     FM231800 17009KT P6SM SCT050 SCT150
     FM240200 VRB06KT P6SM BKN050 OVC150
     FM240600 VRB05KT 6SM -RA BKN020 OVC050=



000
FTUS41 KOKX 231333 AAA
TAFLGA
TAF AMD
KLGA 231333Z 2314/2412 05008KT P6SM FEW050 SCT150
      TEMPO 2318/2320 -SHRA
     FM232000 16010KT P6SM SCT050 SCT150
      TEMPO 2320/2322 -SHRA
     FM240200 VRB06KT P6SM BKN050 OVC150
     FM240600 36006KT 6SM -RA BKN020 OVC050=



000
FTUS41 KOKX 231333 AAA
TAFGON
TAF AMD
KGON 231333Z 2314/2412 VRB06KT P6SM FEW050 SCT150
     FM231600 17008KT P6SM SCT050 SCT150
     FM240100 VRB06KT P6SM BKN050 BKN150
     FM240800 VRB05KT 6SM -RA BKN020 OVC050=



000
FTUS41 KOKX 231333 AAA
TAFTEB
TAF AMD
KTEB 231333Z 2314/2412 05005KT P6SM FEW050 SCT150
      TEMPO 2318/2319 -SHRA
     FM231900 15006KT P6SM SCT050 SCT150
      TEMPO 2319/2322 -SHRA
     FM240100 VRB05KT P6SM BKN050 OVC150
     FM240600 VRB05KT 6SM -RA BKN020 OVC050=



000
FTUS41 KOKX 231120
TAFEWR
TAF
KEWR 231120Z 2312/2418 VRB05KT P6SM BKN150
     FM231400 04006KT P6SM FEW050 SCT150
     FM231800 15007KT P6SM SCT050 SCT150
      TEMPO 2318/2322 -SHRA
     FM240100 VRB06KT P6SM BKN050 OVC150
     FM240600 34005KT 6SM -RA BKN020 OVC050
     FM241500 33006KT P6SM BKN020=



000
FTUS41 KOKX 231120
TAFISP
TAF
KISP 231120Z 2312/2412 VRB04KT 6SM BR BKN100
     FM231400 03006KT P6SM FEW050 SCT150
     FM231800 17009KT P6SM SCT050 SCT150
     FM240200 VRB06KT P6SM BKN050 OVC150
     FM240600 VRB05KT 6SM -RA BKN020 OVC050=



000
FTUS41 KOKX 231120
TAFTEB
TAF
KTEB 231120Z 2312/2412 VRB05KT P6SM BKN150
     FM231400 05005KT P6SM FEW050 SCT150
      TEMPO 2318/2319 -SHRA
     FM231900 15006KT P6SM SCT050 SCT150
      TEMPO 2319/2322 -SHRA
     FM240100 VRB05KT P6SM BKN050 OVC150
     FM240600 VRB05KT 6SM -RA BKN020 OVC050=



000
FTUS41 KOKX 231120
TAFSWF
TAF
KSWF 231120Z 2312/2418 VRB03KT P6SM SCT100
     FM231300 06005KT P6SM SCT040 SCT150
     FM231700 07008KT P6SM BKN040
      TEMPO 2318/2322 5SM -TSRA BKN050CB
     FM240000 VRB04KT P6SM BKN040 OVC100
     FM240600 VRB04KT P6SM -RA BKN020 OVC050
     FM241400 VRB05KT P6SM BKN020
      AMD NOT SKED=



000
FTUS41 KOKX 231120
TAFGON
TAF
KGON 231120Z 2312/2412 VRB06KT P6SM FEW050 SCT150
     FM231600 17008KT P6SM SCT050 SCT150
     FM240100 VRB06KT P6SM BKN050 BKN150
     FM240800 VRB05KT 6SM -RA BKN020 OVC050=



000
FTUS41 KOKX 231120
TAFJFK
TAF
KJFK 231120Z 2312/2418 VRB04KT P6SM BKN150
     FM231300 03008KT P6SM FEW050 SCT150
     FM231700 16011KT P6SM SCT050 SCT150
      TEMPO 2318/2322 -SHRA
     FM240200 VRB06KT P6SM BKN050 OVC150
     FM240600 36006KT 6SM -RA BKN020 OVC050
     FM241500 30008KT P6SM BKN020=



000
FTUS41 KOKX 231120
TAFBDR
TAF
KBDR 231120Z 2312/2412 VRB06KT P6SM FEW050 SCT150
     FM231600 17008KT P6SM SCT050 SCT150
     FM240100 VRB05KT P6SM BKN050 OVC150
     FM240600 VRB05KT 6SM -RA BKN020 OVC050=



000
FTUS41 KOKX 231120
TAFLGA
TAF
KLGA 231120Z 2312/2412 VRB05KT P6SM BKN150
     FM231300 05008KT P6SM FEW050 SCT150
      TEMPO 2318/2320 -SHRA
     FM232000 16010KT P6SM SCT050 SCT150
      TEMPO 2320/2322 -SHRA
     FM240200 VRB06KT P6SM BKN050 OVC150
     FM240600 36006KT 6SM -RA BKN020 OVC050=



000
FTUS41 KOKX 230824 AAC
TAFGON
TAF AMD
KGON 230824Z 2308/2406 VRB04KT P6SM BCFG SCT100
      TEMPO 2308/2312 1SM BR
     FM231300 VRB06KT P6SM FEW050 SCT150
     FM231600 17008KT P6SM SCT050 SCT150
     FM240100 VRB06KT P6SM BKN050 BKN150=



000
FTUS41 KOKX 230701 AAB
TAFGON
TAF AMD
KGON 230701Z 2307/2406 VRB04KT P6SM BCFG SCT100
      TEMPO 2308/2312 1SM BR
     FM231300 VRB06KT P6SM FEW050 SCT150
     FM231600 17008KT P6SM SCT050 SCT150
     FM240100 VRB06KT P6SM BKN050 BKN150=



000
FTUS41 KOKX 230602 AAA
TAFGON
TAF AMD
KGON 230602Z 2306/2406 VRB04KT 2SM BR SCT100
      TEMPO 2306/2310 1SM BR
     FM231300 VRB06KT P6SM FEW050 SCT150
     FM231600 17008KT P6SM SCT050 SCT150
     FM240100 VRB06KT P6SM BKN050 BKN150=



000
FTUS41 KOKX 230520
TAFSWF
TAF
KSWF 230520Z 2306/2412 VRB03KT 6SM BR BKN150
      TEMPO 2310/2312 5SM BR
     FM231300 06005KT P6SM SCT040 SCT150
     FM231700 07008KT P6SM BKN040 PROB30 2318/2321 5SM -TSRA
      BKN050CB
     FM240000 VRB04KT P6SM BKN040 OVC100
     FM240600 VRB04KT P6SM -RA BKN020 OVC050
      AMD NOT SKED=



000
FTUS41 KOKX 230520
TAFGON
TAF
KGON 230520Z 2306/2406 VRB04KT 6SM BR SCT100
      TEMPO 2307/2311 2SM BR
     FM231300 VRB06KT P6SM FEW050 SCT150
     FM231600 17008KT P6SM SCT050 SCT150
     FM240100 VRB06KT P6SM BKN050 BKN150=



000
FTUS41 KOKX 230520
TAFJFK
TAF
KJFK 230520Z 2306/2412 VRB04KT P6SM BKN100
     FM231300 03008KT P6SM FEW050 SCT150
     FM231700 16011KT P6SM SCT050 SCT150
     FM240200 VRB06KT P6SM BKN050 OVC150
     FM240600 34005KT 6SM -RA BKN020 OVC050=



000
FTUS41 KOKX 230520
TAFBDR
TAF
KBDR 230520Z 2306/2406 VRB03KT P6SM BKN100
      TEMPO 2309/2311 5SM BR
     FM231400 VRB06KT P6SM FEW050 SCT150
     FM231600 17008KT P6SM SCT050 SCT150
     FM240100 VRB05KT P6SM BKN050 OVC150=



000
FTUS41 KOKX 230520
TAFEWR
TAF
KEWR 230520Z 2306/2412 VRB04KT P6SM BKN100
     FM231400 04006KT P6SM FEW050 SCT150
     FM231800 15007KT P6SM SCT050 SCT150
     FM240100 VRB06KT P6SM BKN050 OVC150
     FM240600 34005KT 6SM -RA BKN020 OVC050=



000
FTUS41 KOKX 230520
TAFLGA
TAF
KLGA 230520Z 2306/2406 VRB05KT P6SM BKN100
     FM231300 05008KT P6SM FEW050 SCT150
     FM232000 16010KT P6SM SCT050 SCT150
     FM240200 VRB06KT P6SM BKN050 OVC150=



000
FTUS41 KOKX 230520
TAFTEB
TAF
KTEB 230520Z 2306/2406 VRB03KT P6SM BKN100
     FM231400 05005KT P6SM FEW050 SCT150
     FM231900 15006KT P6SM SCT050 SCT150
     FM240100 VRB05KT P6SM BKN050 OVC150=



000
FTUS41 KOKX 230520
TAFISP
TAF
KISP 230520Z 2306/2406 VRB04KT 6SM BR BKN100
     FM231400 03006KT P6SM FEW050 SCT150
     FM231800 17009KT P6SM SCT050 SCT150
     FM240200 VRB06KT P6SM BKN050 OVC150=



000
FTUS41 KOKX 222352
TAFGON
TAF
KGON 222352Z 2300/2324 VRB03KT P6SM SCT120
     FM230500 00000KT 6SM BR SCT120
      TEMPO 2305/2308 2SM BR
     FM230900 VRB03KT P6SM BKN120
     FM231200 05005KT P6SM SCT120
     FM231600 10008KT P6SM SCT120
     FM231800 22008KT P6SM SCT120 BKN200=



000
FTUS41 KOKX 222348
TAFSWF
TAF
KSWF 222348Z 2300/2406 VRB03KT P6SM FEW040 SCT070
     FM230300 VRB03KT P6SM BKN150
     FM230900 VRB03KT 6SM BR BKN150
      TEMPO 2310/2312 5SM BR
     FM231300 06005KT P6SM SCT050 SCT150
     FM231700 07008KT P6SM BKN060 PROB30 2318/2321 5SM -TSRA
      BKN050CB
     FM232300 10005KT P6SM BKN100
     FM240200 33004KT P6SM BKN100
      AMD NOT SKED=



000
FTUS41 KOKX 222348
TAFBDR
TAF
KBDR 222348Z 2300/2324 00000KT P6SM BKN120
     FM230700 VRB03KT 6SM BR BKN120
      TEMPO 2309/2311 4SM BR
     FM231200 03006KT P6SM FEW050 SCT120
     FM231600 17008KT P6SM SCT050 SCT120
     FM231800 22007KT P6SM SCT060 SCT150=



000
FTUS41 KOKX 222340
TAFJFK
TAF
KJFK 222340Z 2300/2406 20006KT P6SM FEW050 BKN080
     FM230200 VRB03KT P6SM BKN120
     FM230800 36004KT P6SM BKN120
     FM231300 03008KT P6SM FEW050 SCT120
     FM231600 08009KT P6SM SCT050 SCT120
     FM231800 18009KT P6SM SCT060 SCT150
     FM240100 18006KT P6SM SCT060 BKN150
     FM240300 32005KT P6SM BKN050=



000
FTUS41 KOKX 222340
TAFTEB
TAF
KTEB 222340Z 2300/2324 19004KT P6SM BKN080
     FM230100 00000KT P6SM BKN120
     FM231300 04005KT P6SM FEW050 SCT120
     FM231600 08007KT P6SM SCT050 SCT120
     FM231800 13006KT P6SM SCT060 SCT150
     FM232000 17006KT P6SM SCT060 SCT150=



000
FTUS41 KOKX 222340
TAFEWR
TAF
KEWR 222340Z 2300/2406 17004KT P6SM FEW040 SCT080 BKN120
     FM230200 VRB03KT P6SM BKN120
     FM230900 36004KT P6SM BKN120
     FM231300 03006KT P6SM FEW050 SCT120
     FM231600 07007KT P6SM SCT050 SCT120
     FM231800 14007KT P6SM SCT060 SCT150
     FM232000 17007KT P6SM SCT060 SCT150
     FM240100 17005KT P6SM SCT060 BKN150
     FM240300 30005KT P6SM BKN050=



000
FTUS41 KOKX 222340
TAFISP
TAF
KISP 222340Z 2300/2324 18004KT P6SM FEW050 SCT100 BKN150
     FM230200 00000KT P6SM BKN120
     FM230800 VRB03KT 6SM BR BKN120
     FM231200 03006KT P6SM FEW050 SCT120
     FM231600 08009KT P6SM SCT050 SCT120
     FM231800 18008KT P6SM SCT060 SCT150=



000
FTUS41 KOKX 222340
TAFLGA
TAF
KLGA 222340Z 2300/2324 18006KT P6SM FEW050 SCT100 BKN150
     FM230400 VRB03KT P6SM BKN120
     FM230800 05006KT P6SM FEW050 BKN120
     FM232000 18009KT P6SM SCT060 SCT150=



000
FTUS41 KOKX 222229 AAC
TAFEWR
TAF AMD
KEWR 222229Z 2222/2324 17007KT P6SM FEW030 SCT080 BKN100
     FM230100 VRB03KT P6SM BKN100
     FM230800 35005KT P6SM BKN120
     FM231200 03008KT P6SM SCT050 BKN100
     FM231900 15007KT P6SM BKN050 BKN100=



000
FTUS41 KOKX 221926 AAA
TAFJFK
TAF AMD
KJFK 221926Z 2219/2324 18010KT P6SM SCT050 BKN080
     FM230000 20007KT P6SM FEW050 BKN100
     FM230200 VRB03KT P6SM BKN120
     FM230800 35006KT P6SM BKN120
     FM231200 03010KT P6SM SCT050 BKN100
     FM231700 17010KT P6SM BKN050 BKN100=



000
FTUS41 KOKX 221926 AAA
TAFBDR
TAF AMD
KBDR 221926Z 2219/2318 20008KT P6SM SCT050 BKN080
     FM230000 22005KT P6SM BKN100
     FM230300 VRB03KT P6SM BKN120
     FM231200 03005KT P6SM SCT050 BKN100
     FM231500 09006KT P6SM SCT050 BKN100=



000
FTUS41 KOKX 221926 AAA
TAFISP
TAF AMD
KISP 221926Z 2219/2318 18008KT P6SM SCT040 BKN080
     FM230000 VRB03KT P6SM BKN100
     FM231200 03007KT P6SM SCT050 BKN100=



000
FTUS41 KOKX 221926 AAA
TAFSWF
TAF AMD
KSWF 221926Z 2219/2324 03010KT P6SM SCT040 BKN080
     FM230000 VRB03KT P6SM BKN100
     FM230800 35005KT P6SM BKN120
     FM231200 04008KT P6SM SCT050 BKN100
     FM231600 03010KT P6SM VCSH BKN050 BKN100
      AMD NOT SKED=



000
FTUS41 KOKX 221926 AAA
TAFGON
TAF AMD
KGON 221926Z 2219/2318 06010G17KT P6SM SCT040 BKN080
     FM222100 08008KT P6SM SCT040 SCT120
     FM230100 01005KT P6SM SCT150
     FM231300 03006KT P6SM SCT040 SCT150
     FM231500 09010KT P6SM SCT040 SCT150=



000
FTUS41 KOKX 221926 AAA
TAFLGA
TAF AMD
KLGA 221926Z 2219/2318 09006KT P6SM SCT040 BKN080
     FM222100 16008KT P6SM FEW050 BKN080
     FM230000 19007KT P6SM FEW050 BKN100
     FM230200 VRB03KT P6SM BKN120
     FM230800 36006KT P6SM BKN120
     FM231200 03010KT P6SM SCT050 BKN100=



000
FTUS41 KOKX 221926 AAA
TAFTEB
TAF AMD
KTEB 221926Z 2219/2318 15007KT P6SM SCT050 BKN080
     FM230000 VRB03KT P6SM BKN100
     FM231200 03005KT P6SM SCT050 BKN100=



000
FTUS41 KOKX 221926 AAA
TAFEWR
TAF AMD
KEWR 221926Z 2219/2324 15007KT P6SM SCT050 BKN080
     FM230000 VRB03KT P6SM BKN100
     FM230800 35005KT P6SM BKN120
     FM231200 03008KT P6SM SCT050 BKN100
     FM231900 15007KT P6SM BKN050 BKN100=



000
FTUS41 KOKX 221406 AAB
TAFBDR
TAF AMD
KBDR 221406Z 2214/2312 03006KT P6SM SCT040 BKN060
     FM221600 17005KT P6SM FEW040 BKN080
     FM230200 36005KT P6SM BKN080=



000
FTUS41 KOKX 221406 AAB
TAFGON
TAF AMD
KGON 221406Z 2214/2312 03008KT P6SM -RA SCT035 OVC060
     FM221600 03012G18KT P6SM SCT040 BKN080
     FM222100 03008KT P6SM SCT040 BKN080
     FM230100 01005KT P6SM BKN060=



000
FTUS41 KOKX 221406 AAB
TAFTEB
TAF AMD
KTEB 221406Z 2214/2312 02006KT P6SM SCT040 BKN080
     FM222200 14005KT P6SM FEW040 BKN090
     FM230100 VRB03KT P6SM BKN090=



000
FTUS41 KOKX 221406 AAB
TAFLGA
TAF AMD
KLGA 221406Z 2214/2312 04007KT P6SM SCT040 BKN060
     FM222100 15006KT P6SM FEW050 BKN100
     FM230200 VRB04KT P6SM BKN100
     FM230700 35007KT P6SM BKN100=



000
FTUS41 KOKX 221406 AAB
TAFSWF
TAF AMD
KSWF 221406Z 2214/2318 05006KT P6SM FEW040 BKN070
     FM230100 VRB03KT P6SM SCT150
     FM230700 34005KT P6SM SCT150
     FM231200 05009KT P6SM BKN100
      AMD NOT SKED=



000
FTUS41 KOKX 221406 AAB
TAFJFK
TAF AMD
KJFK 221406Z 2214/2318 01009KT P6SM SCT040 BKN060
     FM221900 16008KT P6SM FEW050 BKN100
     FM230200 VRB03KT P6SM BKN100
     FM230700 34006KT P6SM BKN100
     FM231200 03012KT P6SM SCT050 BKN100=



000
FTUS41 KOKX 221406 AAB
TAFEWR
TAF AMD
KEWR 221406Z 2214/2318 03007KT P6SM SCT040 BKN060
     FM221700 04006KT P6SM SCT050 BKN090
     FM222100 15007KT P6SM FEW050 BKN090
     FM230100 VRB04KT P6SM BKN090
     FM230700 36005KT P6SM BKN090
     FM231200 03008KT P6SM SCT040 BKN100=



000
FTUS41 KOKX 221406 AAB
TAFISP
TAF AMD
KISP 221406Z 2214/2312 03010KT P6SM FEW025 SCT040 BKN070
     FM222200 15006KT P6SM FEW040 BKN070
     FM230000 VRB03KT P6SM BKN060=



000
FTUS41 KOKX 221303 AAA
TAFEWR
TAF AMD
KEWR 221303Z 2213/2318 01008KT P6SM SCT050 BKN090
     FM221700 04006KT P6SM SCT050 BKN090
     FM222100 15007KT P6SM FEW050 BKN090
     FM230100 VRB04KT P6SM BKN090
     FM230700 36005KT P6SM BKN090
     FM231200 03008KT P6SM SCT040 BKN100=



000
FTUS41 KOKX 221303 AAA
TAFLGA
TAF AMD
KLGA 221303Z 2213/2312 03008KT P6SM SCT050 BKN080
     FM222100 15006KT P6SM FEW050 BKN100
     FM230200 VRB04KT P6SM BKN100
     FM230700 35007KT P6SM BKN100=



000
FTUS41 KOKX 221303 AAA
TAFTEB
TAF AMD
KTEB 221303Z 2213/2312 02006KT P6SM SCT040 BKN090
     FM222200 14005KT P6SM FEW040 BKN090
     FM230100 VRB03KT P6SM BKN090=



000
FTUS41 KOKX 221303 AAA
TAFJFK
TAF AMD
KJFK 221303Z 2213/2318 01010KT P6SM SCT050 BKN080
     FM221900 16008KT P6SM FEW050 BKN100
     FM230200 VRB03KT P6SM BKN100
     FM230700 34006KT P6SM BKN100
     FM231200 03012KT P6SM SCT050 BKN100=



000
FTUS41 KOKX 221120
TAFTEB
TAF
KTEB 221120Z 2212/2312 36003KT P6SM SCT035 BKN040 OVC090
     FM221300 02006KT P6SM SCT040 OVC090
     FM222200 14005KT P6SM FEW040 BKN090
     FM230100 VRB03KT P6SM BKN090=



000
FTUS41 KOKX 221120
TAFLGA
TAF
KLGA 221120Z 2212/2312 02008KT P6SM -RA OVC050
     FM221400 03008KT P6SM SCT050 BKN080
     FM222100 15006KT P6SM FEW050 BKN100
     FM230200 VRB04KT P6SM BKN100
     FM230700 35007KT P6SM BKN100=



000
FTUS41 KOKX 221120
TAFJFK
TAF
KJFK 221120Z 2212/2318 01008KT P6SM -RA BKN050 BKN080
     FM221400 02010KT P6SM SCT050 BKN080
     FM221900 17008KT P6SM FEW050 BKN100
     FM230200 VRB03KT P6SM BKN100
     FM230700 34006KT P6SM BKN100
     FM231200 03012KT P6SM SCT050 BKN100=



000
FTUS41 KOKX 221120
TAFISP
TAF
KISP 221120Z 2212/2312 02008KT P6SM -RA BKN025 OVC040
     FM221500 03010KT P6SM FEW025 SCT040 BKN070
     FM222200 15006KT P6SM FEW040 BKN070
     FM230000 VRB03KT P6SM BKN060=



000
FTUS41 KOKX 221120
TAFBDR
TAF
KBDR 221120Z 2212/2312 01009KT P6SM -RA SCT025 OVC070
     FM221500 03007KT P6SM SCT035 BKN080
     FM221600 21005KT P6SM FEW040 BKN080
     FM230200 36005KT P6SM BKN080=



000
FTUS41 KOKX 221120
TAFEWR
TAF
KEWR 221120Z 2212/2318 36007KT P6SM SCT035 BKN040 OVC060
     FM221300 01008KT P6SM SCT050 BKN090
     FM221700 04006KT P6SM SCT050 BKN090
     FM222200 15007KT P6SM FEW050 BKN090
     FM230100 VRB04KT P6SM BKN090
     FM230700 36005KT P6SM BKN090
     FM231200 03008KT P6SM SCT040 BKN100=



000
FTUS41 KOKX 221120
TAFGON
TAF
KGON 221120Z 2212/2312 01007KT P6SM -RA SCT035 OVC060
     FM221400 03013KT P6SM -RA SCT035 OVC080
     FM221600 03014G19KT P6SM SCT040 BKN080
     FM222100 03008KT P6SM SCT040 BKN080
     FM230100 01005KT P6SM BKN060=



000
FTUS41 KOKX 221120
TAFSWF
TAF
KSWF 221120Z 2212/2318 VRB03KT P6SM OVC070
     FM221300 05008KT P6SM FEW040 BKN070
     FM230100 VRB03KT P6SM SCT150
     FM230700 34005KT P6SM SCT150
     FM231200 05009KT P6SM BKN100
      AMD NOT SKED=



000
FTUS41 KOKX 221009 AAB
TAFEWR
TAF AMD
KEWR 221009Z 2210/2312 35008KT P6SM -RA BKN060 OVC090
     FM221200 01008KT P6SM SCT050 BKN090
     FM221700 VRB04KT P6SM BKN120
     FM222100 15007KT P6SM FEW040 BKN120
     FM230100 VRB04KT P6SM BKN120
     FM230700 36005KT P6SM BKN120=



000
FTUS41 KOKX 221007 AAB
TAFJFK
TAF AMD
KJFK 221007Z 2210/2312 01008KT P6SM -RA BKN050 BKN100
     FM221300 02010KT P6SM SCT050 BKN100
     FM221900 17008KT P6SM FEW050 BKN120
     FM230200 VRB03KT P6SM BKN150
     FM230700 34006KT P6SM BKN150=



000
FTUS41 KOKX 220810 AAC
TAFGON
TAF AMD
KGON 220810Z 2208/2306 01009KT P6SM OVC035
      TEMPO 2208/2211 5SM -RA BKN017
     FM221400 04010KT P6SM SCT035 OVC080
     FM221600 03012G19KT P6SM BKN040
     FM222100 03008KT P6SM BKN040
     FM230100 02005KT P6SM BKN120=



000
FTUS41 KOKX 220705 AAB
TAFGON
TAF AMD
KGON 220705Z 2207/2306 03007KT P6SM SCT035 OVC060
      TEMPO 2207/2210 4SM -RA BKN017
     FM221200 03009KT P6SM BKN015
     FM221400 02008KT P6SM SCT015 OVC060
     FM221600 03012G19KT P6SM BKN040
     FM222100 02008KT P6SM BKN040=



000
FTUS41 KOKX 220704 AAB
TAFISP
TAF AMD
KISP 220704Z 2207/2306 03010KT P6SM OVC006
      TEMPO 2207/2209 -RA SCT006 BKN020
     FM220900 02009KT P6SM SCT007 BKN060
      TEMPO 2209/2212 BKN007
     FM221200 03008KT P6SM SCT040 BKN070
     FM222200 15006KT P6SM FEW040 BKN070
     FM230000 VRB03KT P6SM BKN070=



000
FTUS41 KOKX 220603 AAA
TAFGON
TAF AMD
KGON 220603Z 2206/2306 05007KT P6SM OVC060
      TEMPO 2206/2209 6SM -RA BKN017
     FM221200 03009KT P6SM BKN015
     FM221400 02008KT P6SM SCT015 OVC060
     FM221600 03012G19KT P6SM BKN040
     FM222100 02008KT P6SM BKN040=



000
FTUS41 KOKX 220602 AAA
TAFISP
TAF AMD
KISP 220602Z 2206/2306 02007KT P6SM SCT009 BKN060
      TEMPO 2206/2209 -RA SCT009 BKN020
     FM220900 02007KT P6SM FEW011 BKN060
      TEMPO 2209/2212 BKN011
     FM221200 03008KT P6SM SCT040 BKN070
     FM222200 15006KT P6SM FEW040 BKN070
     FM230000 VRB03KT P6SM BKN070=



000
FTUS41 KOKX 220536
TAFISP
TAF
KISP 220536Z 2206/2306 02007KT P6SM SCT009 BKN060
      TEMPO 2206/2209 -RA BKN009
     FM220900 02007KT P6SM FEW011 BKN060
      TEMPO 2209/2212 BKN011
     FM221200 03008KT P6SM SCT040 BKN070
     FM222200 15006KT P6SM FEW040 BKN070
     FM230000 VRB03KT P6SM BKN070=



000
FTUS41 KOKX 220536
TAFBDR
TAF
KBDR 220536Z 2206/2306 02006KT P6SM -RA OVC050
      TEMPO 2206/2209 -RA BKN020
     FM220900 02007KT P6SM SCT020 OVC050
      TEMPO 2209/2212 BKN020
     FM221200 03007KT P6SM FEW040 BKN090
     FM221600 21005KT P6SM FEW040 BKN090
     FM230000 VRB04KT P6SM BKN090=



000
FTUS41 KOKX 220352 AAB
TAFISP
TAF AMD
KISP 220352Z 2204/2224 03008KT 6SM -RA OVC008
     FM221100 01007KT P6SM VCSH OVC015
     FM221300 02008KT P6SM VCSH BKN025
     FM221500 02008KT P6SM SCT025 OVC090
     FM221700 02008KT P6SM SCT050 BKN100
     FM222100 12006KT P6SM BKN100=



000
FTUS41 KOKX 220352 AAB
TAFGON
TAF AMD
KGON 220352Z 2204/2224 07006KT P6SM VCSH OVC008
     FM220600 05007KT 6SM -RA OVC007
      TEMPO 2207/2209 6SM -RA OVC005
     FM221200 03009KT P6SM VCSH BKN015
     FM221400 02008KT P6SM VCSH SCT015 OVC070
     FM221600 03012G19KT P6SM BKN040
     FM222100 02008KT P6SM BKN040=



000
FTUS41 KOKX 220352 AAB
TAFEWR
TAF AMD
KEWR 220352Z 2204/2306 02008KT 6SM -RA SCT040 OVC050
      TEMPO 2206/2208 OVC030
     FM220800 01008KT P6SM VCSH OVC035
     FM221000 01007KT P6SM OVC050
     FM221900 04006KT P6SM BKN120 PROB30 2219/2221 5SM -SHRA OVC040
     FM222100 15007KT P6SM SCT040 BKN120
     FM230100 VRB04KT P6SM BKN200=



000
FTUS41 KOKX 220352 AAB
TAFJFK
TAF AMD
KJFK 220352Z 2204/2306 03007KT 6SM -RA SCT025 BKN035
     FM220500 02008KT 6SM -RA OVC025
      TEMPO 2206/2209 OVC015
     FM221000 02008KT P6SM OVC050
     FM221900 07008KT P6SM BKN120
     FM222100 17007KT P6SM BKN120
     FM230200 VRB03KT P6SM BKN150=



000
FTUS41 KOKX 212358 CCA
TAFEWR
TAF COR
KEWR 212358Z 2200/2306 07006KT P6SM -RA OVC090
     FM220200 03006KT 6SM -RA SCT025 OVC050
     FM220500 03007KT P6SM VCSH OVC025
     FM220800 02007KT P6SM VCSH OVC035
     FM221000 01007KT P6SM OVC050
     FM221900 04006KT P6SM BKN120 PROB30 2219/2221 5SM -SHRA OVC040
     FM222100 15007KT P6SM SCT040 BKN120
     FM230100 VRB04KT P6SM BKN200=



000
FTUS41 KOKX 212355
TAFISP
TAF
KISP 212355Z 2200/2224 07006KT P6SM VCSH OVC060
     FM220300 05006KT 6SM -RA OVC030
      TEMPO 2204/2205 4SM -RA OVC015
     FM220700 03008KT P6SM VCSH OVC035
     FM220900 02008KT P6SM OVC040
     FM222100 12006KT P6SM BKN110=



000
FTUS41 KOKX 212355
TAFGON
TAF
KGON 212355Z 2200/2224 08004KT P6SM VCSH OVC080
     FM220300 03006KT 6SM -RA OVC030
     FM220800 03099KT P6SM VCSH OVC030
     FM220900 02009KT P6SM OVC030
     FM221600 03012G19KT P6SM BKN035
     FM222100 02008KT P6SM BKN080=



000
FTUS41 KOKX 212355
TAFSWF
TAF
KSWF 212355Z 2200/2306 14004KT P6SM -RA OVC090
     FM220300 VRB03KT P6SM VCSH OVC090
     FM220900 05005KT P6SM OVC100
     FM221500 06007KT P6SM OVC050 PROB30 2218/2221 5SM -SHRA OVC025
     FM230400 VRB04KT P6SM SCT200
      AMD NOT SKED=



000
FTUS41 KOKX 212355
TAFBDR
TAF
KBDR 212355Z 2200/2224 06006KT P6SM VCSH OVC090
     FM220400 04006KT P6SM VCSH OVC090
     FM220900 02008KT P6SM OVC050
     FM221900 05008KT P6SM BKN070=



000
FTUS41 KOKX 212343
TAFLGA
TAF
KLGA 212343Z 2200/2224 08007KT P6SM -RA OVC090
     FM220300 05008KT 6SM -RA SCT025 OVC050
     FM220500 04008KT P6SM VCSH OVC030
     FM220700 03008KT P6SM VCSH OVC035
     FM220900 02008KT P6SM OVC050
     FM222000 06007KT P6SM BKN120
     FM222200 09007KT P6SM BKN110=



000
FTUS41 KOKX 212343
TAFJFK
TAF
KJFK 212343Z 2200/2306 07007KT P6SM -RA OVC050
     FM220300 04008KT 6SM -RA SCT025 OVC050
     FM220500 03008KT P6SM VCSH OVC030
     FM220700 03008KT P6SM VCSH OVC035
     FM220900 02008KT P6SM OVC050
     FM221900 07008KT P6SM BKN120
     FM222100 17007KT P6SM BKN120
     FM230200 VRB03KT P6SM BKN150=



000
FTUS41 KOKX 212343
TAFEWR
TAF
KEWR 212343Z 2200/2306 07006KT P6SM -RA OVC090
     FM220200 03006KT 6SM -RA SCT025 OVC050
     FM220500 03007KT P6SM VCSH OVC025
     FM220800 02007KT P6SM VCSH OVC035
     FM221000 01007KT P6SM OVC050
     FM221900 04006KT P6SM BKN120 PROB30 2219/2222 5SM -SHRA OVC040=



000
FTUS41 KOKX 212055 AAA
TAFBDR
TAF AMD
KBDR 212055Z 2121/2218 10008KT P6SM VCSH FEW050 BKN100
     FM220200 06006KT 6SM -RA BKN035 OVC070
     FM220700 03008KT P6SM BKN030 OVC050
      TEMPO 2207/2211 6SM -SHRA
     FM221200 02009KT P6SM SCT040 BKN080=



000
FTUS41 KOKX 212055 AAB
TAFGON
TAF AMD
KGON 212055Z 2121/2218 VRB04KT P6SM BKN120
     FM212300 VRB03KT P6SM -RA FEW040 OVC090
     FM220200 06005KT 6SM -RA BKN035 OVC070
     FM220700 03008KT P6SM BKN030 OVC050
      TEMPO 2207/2211 6SM -SHRA
     FM221200 02009KT P6SM SCT040 BKN080=



000
FTUS41 KOKX 212049 AAA
TAFLGA
TAF AMD
KLGA 212049Z 2121/2218 12010KT P6SM FEW050 BKN100
     FM212200 11010KT 6SM -RA SCT040 OVC100
     FM220100 04011KT 6SM -RA BKN030 OVC080
     FM220700 03010KT P6SM SCT020 BKN030
      TEMPO 2207/2211 6SM -SHRA
     FM221200 02009KT P6SM SCT060=



000
FTUS41 KOKX 212049 AAA
TAFISP
TAF AMD
KISP 212049Z 2121/2218 10008KT 6SM -RA SCT060 BKN080
     FM212200 08007KT P6SM FEW050 BKN100
     FM220200 06006KT 6SM -RA BKN035 OVC070
     FM220700 03008KT P6SM BKN030 OVC050
      TEMPO 2207/2211 6SM -SHRA
     FM221200 02009KT P6SM SCT040 BKN080=



000
FTUS41 KOKX 212049 AAA
TAFEWR
TAF AMD
KEWR 212049Z 2121/2224 10006KT P6SM FEW045 BKN090
     FM212200 09007KT 6SM -RA SCT040 OVC090
     FM220100 04007KT 6SM -RA BKN030 OVC070
     FM220700 02009KT P6SM SCT015 BKN030
      TEMPO 2207/2211 6SM -SHRA
     FM221200 03010KT P6SM SCT040 BKN080
     FM222000 15008KT P6SM SCT060=



000
FTUS41 KOKX 212049 AAA
TAFJFK
TAF AMD
KJFK 212049Z 2121/2224 10010KT P6SM FEW050 BKN100
     FM212200 10010KT 6SM -RA SCT040 OVC080
     FM220100 05009KT 6SM -RA BKN030 OVC060
     FM220700 01008KT P6SM SCT020 BKN030
      TEMPO 2207/2211 6SM -SHRA
     FM221200 03010KT P6SM SCT040 BKN080
     FM221600 19010KT P6SM SCT060=



000
FTUS41 KOKX 212049 AAA
TAFTEB
TAF AMD
KTEB 212049Z 2121/2218 12007KT P6SM BKN100
     FM212300 09005KT 6SM -RA SCT035 OVC100
     FM220100 05008KT 6SM -RA BKN035 OVC060
     FM220700 02005KT P6SM SCT015 BKN030
      TEMPO 2207/2211 6SM -SHRA
     FM221200 04007KT P6SM SCT040 BKN080=



000
FTUS41 KOKX 211332 AAA
TAFLGA
TAF AMD
KLGA 211332Z 2114/2212 06008KT P6SM BKN150
     FM212000 08010KT 6SM -RA SCT040 OVC100
     FM220000 05011KT 5SM -RA BKN030 OVC080
     FM220600 03010KT 5SM -RA SCT015 BKN025 OVC060=



000
FTUS41 KOKX 211332 AAA
TAFEWR
TAF AMD
KEWR 211332Z 2114/2218 08008KT P6SM BKN150
     FM212000 10010KT 6SM -RA SCT040 OVC090
     FM220000 04007KT 5SM -RA BKN030 OVC070
     FM220600 02009KT 5SM -RA SCT015 BKN025 OVC040
     FM221200 03008KT P6SM BKN050=



000
FTUS41 KOKX 211332 AAA
TAFJFK
TAF AMD
KJFK 211332Z 2114/2218 11008KT P6SM BKN120
     FM212000 10010KT 6SM -RA SCT040 OVC080
     FM220000 05009KT 5SM -RA BKN025 OVC060
     FM220600 02008KT 5SM -RA SCT015 BKN020 OVC040
     FM221200 03010KT P6SM SCT040 BKN080=



000
FTUS41 KOKX 211332 AAA
TAFSWF
TAF AMD
KSWF 211332Z 2114/2218 VRB04KT P6SM FEW150 OVC250
     FM211700 15006KT P6SM BKN100 OVC250
     FM212300 VRB04KT 6SM -RA SCT050 OVC120
     FM220200 05006KT 5SM -RA FEW030 BKN050 OVC100
     FM221200 05010KT P6SM BKN050
      AMD NOT SKED=



000
FTUS41 KOKX 211332 AAA
TAFBDR
TAF AMD
KBDR 211332Z 2114/2212 12005KT P6SM FEW150 BKN250
     FM212100 13007KT 6SM -RA FEW040 OVC120
     FM220100 07006KT 5SM -RA BKN035 OVC090
     FM220600 02008KT 5SM -RA FEW020 BKN030 OVC060=



000
FTUS41 KOKX 211332 AAA
TAFTEB
TAF AMD
KTEB 211332Z 2114/2212 VRB04KT P6SM BKN150
     FM211600 13005KT P6SM BKN150
     FM212000 09009KT 6SM -RA SCT035 OVC100
     FM220000 05008KT 5SM -RA BKN035 OVC060
     FM220600 02005KT 5SM -RA SCT015 BKN030 OVC060=



000
FTUS41 KOKX 211332 AAA
TAFISP
TAF AMD
KISP 211332Z 2114/2212 13007KT P6SM BKN150
     FM212100 11008KT 6SM -RA FEW040 OVC090
     FM220100 07006KT 5SM -RA BKN035 OVC070
     FM220600 03008KT 5SM -RA BR FEW015 BKN025 OVC050=



000
FTUS41 KOKX 211332 AAA
TAFGON
TAF AMD
KGON 211332Z 2114/2212 17006KT P6SM SCT150 OVC250
     FM211800 12005KT P6SM BKN120
     FM212200 10007KT 6SM -RA SCT050 OVC100
     FM220100 06005KT 6SM -RA SCT020 OVC035
     FM220700 02005KT 5SM -RA BKN020 OVC050=



000
FTUS41 KOKX 211123
TAFGON
TAF
KGON 211123Z 2112/2212 VRB03KT P6SM SCT250
     FM211400 15006KT P6SM SCT150 OVC250
     FM211800 12005KT P6SM BKN120
     FM212200 10007KT 6SM -RA SCT050 OVC100
     FM220100 06005KT 6SM -RA SCT020 OVC035
     FM220700 02005KT 5SM -RA BKN020 OVC050=



000
FTUS41 KOKX 211123
TAFEWR
TAF
KEWR 211123Z 2112/2218 09006KT P6SM BKN150
     FM212000 10010KT 6SM -RA SCT040 OVC090
     FM220000 04007KT 5SM -RA BKN030 OVC070
     FM220600 02009KT 5SM -RA SCT015 BKN025 OVC040
     FM221200 03008KT P6SM BKN050=



000
FTUS41 KOKX 211123
TAFSWF
TAF
KSWF 211123Z 2112/2218 16005KT P6SM FEW150 OVC250
     FM211700 12006KT P6SM BKN100 OVC250
     FM212300 VRB04KT 6SM -RA SCT050 OVC120
     FM220200 05006KT 5SM -RA FEW030 BKN050 OVC100
     FM221200 05010KT P6SM BKN050
      AMD NOT SKED=



000
FTUS41 KOKX 211123
TAFBDR
TAF
KBDR 211123Z 2112/2212 VRB03KT P6SM FEW150 BKN250
     FM211400 14008KT P6SM BKN150
     FM212100 13007KT 6SM -RA FEW040 OVC120
     FM220100 07006KT 5SM -RA BKN035 OVC090
     FM220600 02008KT 5SM -RA FEW020 BKN030 OVC060=



000
FTUS41 KOKX 211123
TAFJFK
TAF
KJFK 211123Z 2112/2218 12006KT P6SM BKN120
     FM212000 10010KT 6SM -RA SCT040 OVC080
     FM220000 05009KT 5SM -RA BKN025 OVC060
     FM220600 02008KT 5SM -RA SCT015 BKN020 OVC040
     FM221200 03010KT P6SM SCT040 BKN080=



000
FTUS41 KOKX 211123
TAFLGA
TAF
KLGA 211123Z 2112/2212 10006KT P6SM BKN150
     FM212000 08010KT 6SM -RA SCT040 OVC100
     FM220000 05011KT 5SM -RA BKN030 OVC080
     FM220600 03010KT 5SM -RA SCT015 BKN025 OVC060=



000
FTUS41 KOKX 211123
TAFISP
TAF
KISP 211123Z 2112/2212 VRB03KT P6SM SCT150 BKN250
     FM211400 13007KT P6SM BKN150
     FM212100 11008KT 6SM -RA FEW040 OVC090
     FM220100 07006KT 5SM -RA BKN035 OVC070
     FM220600 03008KT 5SM -RA BR FEW015 BKN025 OVC050=



000
FTUS41 KOKX 211123
TAFTEB
TAF
KTEB 211123Z 2112/2212 11005KT P6SM BKN150
     FM212000 09009KT 6SM -RA SCT035 OVC100
     FM220000 05008KT 5SM -RA BKN035 OVC060
     FM220600 02005KT 5SM -RA SCT015 BKN030 OVC060=



000
FTUS41 KOKX 210834 AAA
TAFEWR
TAF AMD
KEWR 210834Z 2109/2212 VRB03KT P6SM BKN250
     FM211200 10005KT P6SM SCT100 OVC250
     FM211900 10010KT 6SM -RA SCT040 OVC090
     FM212300 06010KT 5SM -RA BKN025 OVC070
     FM220600 02012KT 5SM -RA BKN015 OVC035=



000
FTUS41 KOKX 210834 AAA
TAFJFK
TAF AMD
KJFK 210834Z 2109/2212 VRB04KT P6SM BKN250
     FM211200 12006KT P6SM SCT120 OVC250
     FM212000 07010KT 6SM -RA SCT040 OVC080
     FM212300 05012KT 5SM -RA BKN025 OVC080
     FM220600 02011KT 5SM -RA BKN015 OVC040=



000
FTUS41 KOKX 210834 AAA
TAFLGA
TAF AMD
KLGA 210834Z 2109/2206 VRB04KT P6SM BKN250
     FM211200 10006KT P6SM SCT120 OVC250
     FM212000 08012KT 6SM -RA SCT040 OVC100
     FM212300 04014KT 5SM -RA BKN025 OVC080=



000
FTUS41 KOKX 210834 AAA
TAFISP
TAF AMD
KISP 210834Z 2109/2206 VRB03KT P6SM BKN250
     FM211500 13007KT P6SM BKN150
     FM212100 08008KT 6SM -RA SCT040 OVC090
     FM220000 04006KT 5SM -RA BKN025 OVC050=



000
FTUS41 KOKX 210834 AAA
TAFTEB
TAF AMD
KTEB 210834Z 2109/2206 VRB03KT P6SM BKN250
     FM211200 11005KT P6SM SCT100 OVC250
     FM212000 12009KT 6SM -RA SCT035 OVC080
     FM212300 05008KT 5SM -RA BKN030 OVC060=



000
FTUS41 KOKX 210834 AAA
TAFGON
TAF AMD
KGON 210834Z 2109/2206 VRB03KT P6SM SCT250
     FM211500 15007KT P6SM SCT150 OVC250
     FM212200 09008KT 6SM -RA SCT050 OVC100
     FM220100 06007KT 6SM -RA SCT020 OVC035=



000
FTUS41 KOKX 210834 AAA
TAFBDR
TAF AMD
KBDR 210834Z 2109/2206 VRB03KT P6SM BKN250
     FM211500 14008KT P6SM BKN150
     FM212100 10008KT 6SM -RA SCT040 OVC080
     FM220000 05007KT 5SM -RA BKN030 OVC070=



    US Dept of Commerce
    National Oceanic and Atmospheric Administration
    National Weather Service
    1325 East West Highway
    Silver Spring, MD 20910
    Page Author: NWS Internet Services Team
Disclaimer
Information Quality
Credits
Glossary
Privacy Policy
Freedom of Information Act (FOIA)
About Us
Career Opportunities